Time;durP1;ratioP1;P1;durP2;ratioP2;P2;SDS_P1;SDS_P2;PMS_P1;PMS_P2;Temp;Humidity;BMP_temperature;BMP_pressure;BME280_temperature;BME280_humidity;BME280_pressure;Samples;Min_cycle;Max_cycle;Signal;HPM_P1;HPM_P2
2021/03/05 00:02:11;;;;;;;15.68;8.85;;;3.20;91.50;;;;;;6246196;23;20098;-90
2021/03/05 00:04:40;;;;;;;15.25;9.32;;;3.20;91.50;;;;;;6246443;23;20065;-87
2021/03/05 00:07:12;;;;;;;12.63;8.77;;;3.20;91.50;;;;;;6245269;23;20083;-91
2021/03/05 00:12:43;;;;;;;16.05;8.35;;;3.10;91.60;;;;;;6244962;22;20317;-90
2021/03/05 00:15:12;;;;;;;15.30;9.73;;;3.10;91.60;;;;;;6245242;23;20023;-88
2021/03/05 00:17:50;;;;;;;14.75;8.85;;;3.10;91.50;;;;;;6246291;23;20259;-90
2021/03/05 00:20:40;;;;;;;13.52;8.50;;;3.00;91.50;;;;;;6245669;23;20048;-92
2021/03/05 00:23:12;;;;;;;16.95;9.73;;;3.00;91.60;;;;;;6248029;23;20050;-91
2021/03/05 00:25:41;;;;;;;15.48;9.68;;;3.00;91.70;;;;;;6248315;23;20012;-87
2021/03/05 00:28:07;;;;;;;13.85;7.72;;;3.00;91.70;;;;;;6246999;23;20028;-89
2021/03/05 00:30:45;;;;;;;18.83;10.00;;;3.00;91.60;;;;;;6248174;23;20020;-87
2021/03/05 00:33:11;;;;;;;14.85;8.60;;;2.90;91.70;;;;;;6246904;23;20086;-88
2021/03/05 00:35:42;;;;;;;18.98;8.73;;;2.90;91.60;;;;;;6247069;23;20050;-90
2021/03/05 00:38:14;;;;;;;14.02;9.30;;;2.90;91.70;;;;;;6248252;23;20016;-87
2021/03/05 00:40:40;;;;;;;15.68;8.57;;;2.90;91.80;;;;;;6246948;23;20091;-87
2021/03/05 00:43:15;;;;;;;17.23;8.52;;;2.90;91.80;;;;;;6248208;23;20058;-87
2021/03/05 00:45:41;;;;;;;17.45;9.40;;;2.90;91.90;;;;;;6248114;23;20016;-89
2021/03/05 00:48:10;;;;;;;13.50;7.78;;;2.90;91.80;;;;;;6247601;23;20047;-89
2021/03/05 00:50:42;;;;;;;13.93;8.60;;;2.90;91.90;;;;;;6248378;23;20119;-91
2021/03/05 00:53:11;;;;;;;13.38;8.05;;;2.80;92.00;;;;;;6248343;23;20020;-88
2021/03/05 00:55:42;;;;;;;15.93;9.20;;;2.80;91.90;;;;;;6246894;23;20444;-87
2021/03/05 00:58:11;;;;;;;17.20;8.77;;;2.80;92.00;;;;;;6248233;23;20024;-87
2021/03/05 01:00:37;;;;;;;15.85;8.38;;;2.80;92.00;;;;;;6247987;23;20023;-87
2021/03/05 01:03:09;;;;;;;14.93;8.00;;;2.80;92.10;;;;;;6247239;23;20020;-88
2021/03/05 01:05:41;;;;;;;13.55;7.97;;;2.80;92.10;;;;;;6248215;23;20027;-88
2021/03/05 01:08:09;;;;;;;14.30;7.63;;;2.80;92.40;;;;;;6248338;23;20074;-88
2021/03/05 01:10:43;;;;;;;14.05;8.27;;;2.80;92.00;;;;;;6245622;23;20337;-90
2021/03/05 01:13:45;;;;;;;13.75;7.22;;;2.70;92.00;;;;;;6247865;23;20471;-89
2021/03/05 01:16:48;;;;;;;16.85;7.93;;;2.70;92.00;;;;;;6247371;23;20023;-89
2021/03/05 01:22:56;;;;;;;14.45;8.18;;;2.60;91.90;;;;;;6247250;23;20059;-89
2021/03/05 01:25:40;;;;;;;16.25;7.72;;;2.60;91.90;;;;;;6247817;23;20016;-90
2021/03/05 01:31:46;;;;;;;13.80;7.40;;;2.50;92.00;;;;;;6246853;23;20015;-90
2021/03/05 01:34:52;;;;;;;15.55;7.95;;;2.50;91.90;;;;;;6247263;23;20016;-89
2021/03/05 01:37:43;;;;;;;20.20;8.05;;;2.50;92.00;;;;;;6246844;23;20023;-90
2021/03/05 01:40:50;;;;;;;14.00;7.13;;;2.50;92.10;;;;;;6247989;23;20095;-90
2021/03/05 01:43:45;;;;;;;13.95;6.88;;;2.40;92.20;;;;;;6247769;23;20020;-89
2021/03/05 01:46:12;;;;;;;15.65;7.03;;;2.40;92.10;;;;;;6245904;23;20139;-88
2021/03/05 01:48:38;;;;;;;13.82;6.72;;;2.40;92.00;;;;;;6247722;23;20441;-88
2021/03/05 01:51:39;;;;;;;15.38;6.72;;;2.40;92.10;;;;;;6246737;23;20152;-89
2021/03/05 01:54:41;;;;;;;15.95;7.72;;;2.40;92.10;;;;;;6247404;23;20044;-89
2021/03/05 01:57:44;;;;;;;14.18;7.03;;;2.30;92.10;;;;;;6247454;23;20043;-88
2021/03/05 02:00:17;;;;;;;16.42;7.30;;;2.30;92.10;;;;;;6246491;23;20028;-89
2021/03/05 02:02:43;;;;;;;16.15;7.07;;;2.30;92.10;;;;;;6246507;23;20016;-89
2021/03/05 02:05:45;;;;;;;15.13;6.53;;;2.30;92.10;;;;;;6246512;23;20023;-90
2021/03/05 02:08:12;;;;;;;13.40;7.15;;;2.20;92.30;;;;;;6251684;23;20016;-89
2021/03/05 02:10:41;;;;;;;17.42;6.93;;;2.20;92.30;;;;;;6248946;23;20031;-88
2021/03/05 02:16:48;;;;;;;14.70;7.07;;;2.20;92.40;;;;;;6184736;23;20021;-89
2021/03/05 02:19:51;;;;;;;;;;;2.20;92.30;;;;;;6152137;23;20449;-87
2021/03/05 02:22:47;;;;;;;12.27;6.70;;;2.20;91.70;;;;;;6186771;23;19999;-88
2021/03/05 02:25:42;;;;;;;12.68;6.00;;;2.20;92.20;;;;;;6216693;23;20040;-88
2021/03/05 02:29:14;;;;;;;13.43;6.30;;;2.20;92.30;;;;;;6152895;23;20025;-88
2021/03/05 02:31:48;;;;;;;13.18;5.82;;;2.20;92.40;;;;;;6216466;23;20350;-89
2021/03/05 02:34:44;;;;;;;14.38;5.63;;;2.20;92.40;;;;;;6216222;23;20017;-89
2021/03/05 02:37:15;;;;;;;13.30;6.13;;;2.10;92.40;;;;;;6217798;23;20021;-88
2021/03/05 02:39:49;;;;;;;10.93;5.80;;;2.10;92.40;;;;;;6217071;23;20088;-89
2021/03/05 02:42:43;;;;;;;;;;;2.10;92.50;;;;;;6216340;23;20042;-87
2021/03/05 02:45:46;;;;;;;12.98;4.68;;;2.10;91.80;;;;;;6095355;23;20303;-89
2021/03/05 02:48:48;;;;;;;11.98;5.78;;;2.00;92.30;;;;;;6094358;23;20459;-89
2021/03/05 02:51:17;;;;;;;13.63;5.82;;;2.00;92.20;;;;;;6095381;23;20018;-90
2021/03/05 02:53:44;;;;;;;11.35;5.65;;;2.00;92.30;;;;;;6095341;23;20022;-89
2021/03/05 02:59:42;;;;;;;12.60;4.93;;;2.00;92.40;;;;;;6095364;23;20037;-88
2021/03/05 03:02:11;;;;;;;11.73;5.32;;;2.00;92.40;;;;;;6094300;23;20018;-89
2021/03/05 03:04:43;;;;;;;13.85;5.22;;;1.90;92.30;;;;;;6095335;23;20089;-88
2021/03/05 03:07:15;;;;;;;9.43;5.05;;;1.90;92.40;;;;;;6095569;23;20145;-89
2021/03/05 03:09:43;;;;;;;11.63;5.00;;;1.90;92.20;;;;;;6094289;23;20042;-90
2021/03/05 03:12:10;;;;;;;11.25;4.45;;;1.90;92.30;;;;;;6095374;23;20015;-88
2021/03/05 03:14:51;;;;;;;10.43;4.75;;;1.90;92.20;;;;;;6097399;23;20038;-88
2021/03/05 03:29:49;;;;;;;11.82;4.55;;;1.80;91.90;;;;;;6185062;23;20107;-89
2021/03/05 03:32:18;;;;;;;11.32;4.78;;;1.80;91.90;;;;;;6186618;23;20017;-89
2021/03/05 03:34:44;;;;;;;14.50;4.70;;;1.80;92.10;;;;;;6186366;23;20017;-90
2021/03/05 03:37:41;;;;;;;13.43;4.07;;;1.80;92.10;;;;;;6185630;23;20021;-89
2021/03/05 03:40:41;;;;;;;17.25;4.53;;;1.80;92.30;;;;;;6186133;23;20016;-89
2021/03/05 03:52:51;;;;;;;8.32;3.53;;;1.80;92.40;;;;;;6215275;23;20027;-89
2021/03/05 03:55:51;;;;;;;8.95;3.67;;;1.80;92.40;;;;;;6216538;23;20017;-88
2021/03/05 03:58:49;;;;;;;10.38;3.80;;;1.80;92.40;;;;;;6215575;23;20020;-88
2021/03/05 04:01:18;;;;;;;10.02;3.35;;;1.80;92.40;;;;;;6216658;23;20040;-90
2021/03/05 04:07:51;;;;;;;10.27;3.35;;;1.80;92.40;;;;;;6202672;23;20036;-88
2021/03/05 04:14:10;;;;;;;8.05;2.78;;;1.70;92.30;;;;;;6215151;23;20011;-89
2021/03/05 04:19:47;;;;;;;7.68;3.42;;;1.60;92.30;;;;;;6242901;22;20344;-88
2021/03/05 04:22:14;;;;;;;6.20;2.63;;;1.60;92.30;;;;;;6246342;23;20102;-88
2021/03/05 04:24:46;;;;;;;7.07;2.67;;;1.50;92.30;;;;;;6246314;23;20023;-88
2021/03/05 04:27:18;;;;;;;6.80;2.50;;;1.50;92.30;;;;;;6242327;22;20069;-89
2021/03/05 04:29:47;;;;;;;6.53;2.85;;;1.50;92.20;;;;;;6245499;23;20012;-88
2021/03/05 04:32:13;;;;;;;8.40;2.60;;;1.40;92.20;;;;;;6216165;23;20027;-89
2021/03/05 04:34:51;;;;;;;9.30;2.40;;;1.40;92.10;;;;;;6214833;23;20017;-89
2021/03/05 04:37:17;;;;;;;9.05;3.03;;;1.40;92.10;;;;;;6215948;23;20079;-88
2021/03/05 04:39:49;;;;;;;6.65;2.25;;;1.40;92.00;;;;;;6215834;23;20021;-88
2021/03/05 04:43:04;;;;;;;8.55;2.80;;;1.40;92.00;;;;;;6215721;23;20013;-88
2021/03/05 04:51:46;;;;;;;6.47;2.55;;;1.20;92.00;;;;;;6214690;23;20480;-88
2021/03/05 04:57:46;;;;;;;;;;;1.20;92.20;;;;;;6216199;23;20078;-87
2021/03/05 05:00:49;;;;;;;7.80;2.45;;;1.10;91.60;;;;;;6214468;23;19916;-88
2021/03/05 05:07:12;;;;;;;9.30;2.30;;;1.10;92.20;;;;;;6215726;23;20015;-88
2021/03/05 05:09:53;;;;;;;7.25;2.38;;;1.10;92.30;;;;;;6212511;23;20017;-88
2021/03/05 05:18:08;;;;;;;7.05;2.03;;;1.10;92.40;;;;;;6222668;23;20028;-89
2021/03/05 05:21:07;;;;;;;6.22;2.15;;;1.10;92.40;;;;;;6237029;23;20394;-89
2021/03/05 05:23:49;;;;;;;7.72;1.70;;;1.10;92.40;;;;;;6220941;23;20453;-88
2021/03/05 05:26:49;;;;;;;5.47;1.80;;;1.10;92.60;;;;;;6248057;23;20094;-88
2021/03/05 05:29:15;;;;;;;6.53;1.77;;;1.10;92.70;;;;;;6247164;23;20022;-87
2021/03/05 05:31:46;;;;;;;7.30;1.85;;;1.00;92.30;;;;;;6247888;23;20386;-87
2021/03/05 05:35:06;;;;;;;7.00;1.83;;;1.00;92.50;;;;;;6247786;23;20016;-87
2021/03/05 05:37:41;;;;;;;5.90;1.80;;;1.00;92.60;;;;;;6188812;23;20022;-88
2021/03/05 05:40:10;;;;;;;6.15;2.03;;;1.00;92.50;;;;;;6247659;23;20341;-87
2021/03/05 05:43:09;;;;;;;6.32;1.92;;;0.90;92.50;;;;;;6247919;23;20016;-88
2021/03/05 05:45:47;;;;;;;5.85;1.63;;;0.90;92.50;;;;;;6247276;23;20073;-88
2021/03/05 05:48:13;;;;;;;7.43;1.75;;;0.90;92.50;;;;;;6247789;23;20095;-86
2021/03/05 05:51:04;;;;;;;8.68;1.98;;;0.80;92.60;;;;;;6246941;23;20023;-88
2021/03/05 05:53:46;;;;;;;6.38;1.67;;;0.80;92.60;;;;;;6245866;23;20444;-86
2021/03/05 05:56:14;;;;;;;;;;;0.80;92.60;;;;;;6248093;23;20362;-85
2021/03/05 05:58:46;;;;;;;8.68;1.98;;;0.70;92.00;;;;;;6246328;23;20283;-86
2021/03/05 06:01:24;;;;;;;5.53;1.70;;;0.70;92.50;;;;;;6247514;23;20035;-87
2021/03/05 06:04:12;;;;;;;5.70;1.63;;;0.60;92.50;;;;;;6247299;23;20096;-87
2021/03/05 06:06:38;;;;;;;5.28;1.50;;;0.70;92.60;;;;;;6239554;23;20091;-87
2021/03/05 06:09:04;;;;;;;5.55;1.70;;;0.60;92.50;;;;;;6247081;23;20099;-87
2021/03/05 06:11:36;;;;;;;5.22;1.63;;;0.60;92.80;;;;;;6244567;23;20076;-87
2021/03/05 06:18:30;;;;;;;5.10;1.77;;;0.50;92.40;;;;;;6246537;23;20340;-86
2021/03/05 06:21:47;;;;;;;8.80;1.75;;;0.50;92.40;;;;;;6186828;23;20033;-88
2021/03/05 06:28:50;;;;;;;6.72;2.08;;;0.40;92.50;;;;;;6186253;23;20447;-87
2021/03/05 06:32:13;;;;;;;7.35;1.83;;;0.40;92.40;;;;;;6186133;23;20449;-87
2021/03/05 06:44:35;;;;;;;7.05;1.85;;;0.30;92.50;;;;;;6215984;23;20341;-86
2021/03/05 06:50:46;;;;;;;6.95;1.98;;;0.30;92.60;;;;;;6204551;23;20028;-86
2021/03/05 09:21:45;;;;;;;3.30;0.90;;;3.20;92.00;;;;;;6231341;23;20096;31
2021/03/05 09:30:08;;;;;;;3.45;0.73;;;3.50;92.20;;;;;;6217801;23;20094;-91
2021/03/05 10:33:01;;;;;;;2.80;0.63;;;5.70;90.20;;;;;;6224199;23;20024;-93
2021/03/05 10:35:42;;;;;;;3.03;0.70;;;5.90;89.70;;;;;;6247734;23;20475;-91
2021/03/05 10:38:54;;;;;;;3.67;0.68;;;6.00;89.40;;;;;;6247907;23;20043;-92
2021/03/05 10:42:10;;;;;;;4.35;0.80;;;6.10;90.10;;;;;;6247595;23;20016;-92
2021/03/05 10:44:46;;;;;;;3.80;0.70;;;6.30;90.00;;;;;;6213938;23;20023;-91
2021/03/05 10:47:14;;;;;;;5.40;0.70;;;6.40;90.20;;;;;;6246965;23;20027;-91
2021/03/05 10:58:13;;;;;;;5.60;0.82;;;6.70;90.20;;;;;;6211605;23;20044;-93
2021/03/05 11:00:48;;;;;;;3.05;0.70;;;6.80;90.20;;;;;;6247352;23;20496;-93
2021/03/05 11:03:48;;;;;;;7.10;1.00;;;6.90;89.70;;;;;;6248256;23;20027;-92
2021/03/05 11:06:50;;;;;;;5.25;0.80;;;7.00;87.40;;;;;;6248492;23;20344;-91
2021/03/05 11:15:52;;;;;;;3.17;0.70;;;7.10;88.20;;;;;;6194656;23;20031;-93
2021/03/05 11:38:46;;;;;;;4.50;0.90;;;7.40;81.40;;;;;;6230405;23;20036;-91
2021/03/05 11:41:18;;;;;;;4.30;0.77;;;7.40;80.50;;;;;;6238874;23;20555;-90
2021/03/05 11:43:53;;;;;;;5.78;1.00;;;7.40;81.00;;;;;;6247053;23;20447;-90
2021/03/05 11:47:12;;;;;;;5.55;0.80;;;7.30;80.70;;;;;;6194383;23;20368;-91
2021/03/05 11:50:10;;;;;;;3.72;0.80;;;7.30;80.30;;;;;;6246583;23;20044;-91
2021/03/05 11:52:40;;;;;;;4.70;0.82;;;7.40;82.40;;;;;;6084453;23;20018;-86
2021/03/05 12:26:49;;;;;;;5.75;1.23;;;7.90;76.60;;;;;;6242284;23;20095;-94
2021/03/05 12:34:07;;;;;;;6.53;1.08;;;7.90;79.10;;;;;;6186713;23;20035;-94
2021/03/05 12:40:41;;;;;;;3.85;0.80;;;8.10;81.50;;;;;;6248903;23;20062;-88
2021/03/05 13:30:39;;;;;;;6.22;0.88;;;9.10;74.70;;;;;;6243683;23;20024;-94
2021/03/05 13:33:14;;;;;;;3.80;0.82;;;9.10;76.80;;;;;;6256059;23;20075;-96
2021/03/05 13:35:43;;;;;;;3.28;0.90;;;9.20;78.30;;;;;;6250965;23;20016;-91
2021/03/05 13:38:17;;;;;;;2.70;0.70;;;9.20;77.50;;;;;;6249131;23;20027;-94
2021/03/05 14:03:41;;;;;;;8.15;0.98;;;8.90;75.40;;;;;;6146008;23;20119;-93
2021/03/05 14:08:43;;;;;;;3.72;0.80;;;9.00;76.60;;;;;;6234993;23;20031;-89
2021/03/05 14:13:47;;;;;;;8.00;1.05;;;9.00;70.80;;;;;;6234120;23;20031;-91
2021/03/05 14:16:44;;;;;;;5.18;0.80;;;9.00;73.50;;;;;;6247363;23;20016;-92
2021/03/05 14:23:12;;;;;;;5.75;0.77;;;9.00;73.90;;;;;;6222299;23;20054;-92
2021/03/05 14:25:39;;;;;;;4.35;0.88;;;9.00;73.30;;;;;;6245861;23;20020;-86
2021/03/05 14:28:13;;;;;;;4.15;0.80;;;9.00;74.70;;;;;;6248338;23;20333;-90
2021/03/05 14:30:45;;;;;;;8.70;0.90;;;9.10;76.00;;;;;;6197294;23;20043;-93
2021/03/05 14:33:14;;;;;;;6.18;0.93;;;9.20;77.70;;;;;;6253152;23;20023;-91
2021/03/05 14:35:40;;;;;;;7.85;0.98;;;9.30;78.10;;;;;;6249384;23;20016;-92
2021/03/05 14:38:11;;;;;;;4.93;0.90;;;9.30;77.60;;;;;;6245521;23;20023;-92
2021/03/05 14:40:39;;;;;;;5.80;1.00;;;9.40;77.80;;;;;;6247421;23;20023;-90
2021/03/05 14:43:35;;;;;;;5.65;1.08;;;9.50;78.30;;;;;;6249090;23;20046;-92
2021/03/05 14:49:38;;;;;;;4.72;1.27;;;9.50;79.80;;;;;;6246395;23;20016;-88
2021/03/05 14:52:45;;;;;;;7.30;1.30;;;9.60;79.40;;;;;;6244417;23;20032;-88
2021/03/05 14:55:35;;;;;;;7.35;1.00;;;9.60;80.20;;;;;;6244722;23;20064;-89
2021/03/05 15:13:05;;;;;;;5.18;0.93;;;9.50;79.80;;;;;;5993944;23;20039;-87
2021/03/05 15:15:35;;;;;;;5.55;1.02;;;9.60;80.30;;;;;;6036592;23;20054;-86
2021/03/05 15:18:16;;;;;;;9.48;1.27;;;9.60;78.80;;;;;;6105935;23;20033;-90
2021/03/05 15:21:00;;;;;;;7.80;1.08;;;9.60;75.90;;;;;;6234162;23;20023;-94
2021/03/05 15:23:26;;;;;;;6.72;1.00;;;9.50;77.40;;;;;;6246734;23;20097;-95
2021/03/05 15:25:52;;;;;;;6.68;1.25;;;9.50;76.90;;;;;;6248003;23;20440;-95
2021/03/05 15:28:21;;;;;;;6.32;1.40;;;9.40;76.70;;;;;;6243503;23;20024;-94
2021/03/05 15:30:47;;;;;;;5.18;1.20;;;9.40;78.20;;;;;;6246782;23;20023;-95
2021/03/05 15:33:12;;;;;;;5.15;1.00;;;9.40;78.80;;;;;;6247661;23;20016;-95
2021/03/05 15:35:44;;;;;;;7.25;1.10;;;9.30;78.90;;;;;;6247172;23;20016;-94
2021/03/05 15:38:11;;;;;;;8.23;1.20;;;9.40;76.10;;;;;;6247331;23;20023;-94
2021/03/05 15:40:39;;;;;;;7.28;0.98;;;9.20;73.00;;;;;;6247817;23;20024;-93
2021/03/05 15:43:05;;;;;;;7.65;1.25;;;9.10;70.10;;;;;;6246375;23;20091;-96
2021/03/05 15:45:31;;;;;;;6.07;0.95;;;9.00;72.90;;;;;;6248174;23;20386;-96
2021/03/05 15:48:00;;;;;;;8.52;1.83;;;9.00;72.90;;;;;;6247634;23;20449;-96
2021/03/05 15:50:32;;;;;;;6.68;1.10;;;8.90;71.60;;;;;;6248649;23;20040;-94
2021/03/05 15:52:57;;;;;;;6.90;1.10;;;8.90;74.50;;;;;;6247731;23;20027;-96
2021/03/05 15:55:29;;;;;;;9.20;1.40;;;8.80;74.30;;;;;;6247031;23;20008;-96
2021/03/05 15:58:11;;;;;;;7.60;1.52;;;8.70;72.90;;;;;;6247375;23;20020;-96
2021/03/05 16:01:05;;;;;;;5.15;1.10;;;8.60;75.70;;;;;;6247936;23;20058;-95
2021/03/05 16:03:43;;;;;;;5.88;1.42;;;8.50;75.30;;;;;;6246747;23;20017;-96
2021/03/05 16:10:07;;;;;;;6.68;1.23;;;8.30;76.10;;;;;;6095544;23;20023;-95
2021/03/05 16:12:33;;;;;;;8.95;1.42;;;8.30;77.20;;;;;;6095992;23;20038;-95
2021/03/05 16:15:30;;;;;;;9.27;1.33;;;8.30;78.40;;;;;;6096318;23;20452;-94
2021/03/05 16:22:05;;;;;;;9.02;1.30;;;8.30;75.30;;;;;;6135755;23;20074;-95
2021/03/05 16:24:31;;;;;;;12.52;1.52;;;8.20;77.40;;;;;;6250369;22;20467;-95
2021/03/05 16:27:00;;;;;;;8.40;1.40;;;8.20;78.70;;;;;;6246530;23;20012;-90
2021/03/05 16:29:53;;;;;;;8.30;1.42;;;8.20;80.10;;;;;;6244123;23;20024;-88
2021/03/05 16:35:09;;;;;;;;;;;8.20;78.20;;;;;;6213140;23;20400;-89
2021/03/05 16:37:34;;;;;;;6.82;1.30;;;8.10;75.30;;;;;;6214916;23;20256;-85
2021/03/05 16:42:37;;;;;;;7.15;1.15;;;8.00;78.50;;;;;;6214287;23;20351;-89
2021/03/05 16:45:07;;;;;;;6.85;1.17;;;8.00;77.40;;;;;;6214345;23;20426;-88
2021/03/05 16:47:39;;;;;;;7.53;1.25;;;7.90;76.10;;;;;;6215222;23;20463;-87
2021/03/05 16:50:06;;;;;;;7.45;1.20;;;8.00;78.90;;;;;;6216870;23;20314;-92
2021/03/05 16:53:08;;;;;;;7.93;1.13;;;8.00;81.00;;;;;;6214783;23;20017;-93
2021/03/05 16:55:42;;;;;;;7.18;1.17;;;8.10;82.50;;;;;;6216671;23;20020;-93
2021/03/05 16:58:08;;;;;;;8.00;1.38;;;8.20;83.00;;;;;;6215782;23;20023;-94
2021/03/05 17:00:34;;;;;;;8.15;1.30;;;8.20;83.50;;;;;;6216103;23;20040;-94
2021/03/05 17:22:41;;;;;;;;;;;;;;;;;;;;;
2021/03/05 17:26:15;;;;;;;6.82;1.02;;;8.10;82.50;;;;;;6248624;23;20031;-93
2021/03/05 17:29:44;;;;;;;6.20;1.42;;;8.00;83.90;;;;;;6248555;23;20028;-94
2021/03/05 17:32:39;;;;;;;8.05;1.42;;;8.10;83.60;;;;;;6248100;23;20103;-92
2021/03/05 17:39:59;;;;;;;6.25;1.30;;;8.00;83.10;;;;;;6246972;23;20099;-85
2021/03/05 17:42:09;;;;;;;6.13;1.30;;;8.00;83.80;;;;;;6231125;23;20020;-83
2021/03/05 17:44:38;;;;;;;7.90;1.30;;;8.00;84.50;;;;;;6246480;23;20020;-83
2021/03/05 17:47:41;;;;;;;6.60;1.40;;;8.00;85.20;;;;;;6246714;23;20016;-83
2021/03/05 17:50:12;;;;;;;5.85;1.27;;;8.00;83.50;;;;;;6234282;23;20020;-83
2021/03/05 17:52:56;;;;;;;8.30;1.55;;;7.90;83.90;;;;;;6237268;23;20020;-86
2021/03/05 17:55:41;;;;;;;;;;;7.90;84.50;;;;;;6246770;23;20066;-87
2021/03/05 17:58:07;;;;;;;4.32;1.00;;;7.80;83.60;;;;;;6246762;23;20332;-89
2021/03/05 18:00:44;;;;;;;8.77;1.70;;;7.80;84.70;;;;;;6248340;23;20020;-90
2021/03/05 18:04:06;;;;;;;6.85;1.25;;;7.80;85.20;;;;;;6246118;23;20496;-94
2021/03/05 18:13:13;;;;;;;;;;;;;;;;;;;;;
2021/03/05 19:21:13;;;;;;;7.25;2.20;;;6.40;86.80;;;;;;6155479;23;20438;-91
2021/03/05 19:23:44;;;;;;;8.57;2.63;;;6.40;86.70;;;;;;6156826;23;20024;-91
2021/03/05 19:26:50;;;;;;;7.10;2.20;;;6.40;86.80;;;;;;6154970;23;20383;-92
2021/03/05 19:30:09;;;;;;;7.57;2.60;;;6.30;87.00;;;;;;6142654;23;20071;-92
2021/03/05 19:33:10;;;;;;;7.75;2.55;;;6.20;86.90;;;;;;6156922;23;20465;-92
2021/03/05 19:35:53;;;;;;;8.45;2.45;;;6.20;86.90;;;;;;6157225;23;20014;-93
2021/03/05 19:38:45;;;;;;;9.15;2.80;;;6.10;87.00;;;;;;6156819;23;20022;-93
2021/03/05 19:41:53;;;;;;;8.05;2.60;;;6.00;87.00;;;;;;6155607;23;20018;-93
2021/03/05 19:44:43;;;;;;;8.10;2.42;;;6.00;87.10;;;;;;6061560;23;20335;-92
2021/03/05 19:47:09;;;;;;;7.20;2.20;;;5.90;87.10;;;;;;6155190;23;20574;-92
2021/03/05 19:49:42;;;;;;;7.38;2.47;;;5.90;87.20;;;;;;6156061;23;20052;-91
2021/03/05 19:52:07;;;;;;;6.20;2.10;;;5.80;87.30;;;;;;6149185;23;20025;-86
2021/03/05 19:54:42;;;;;;;8.93;2.30;;;5.80;87.20;;;;;;6153884;23;20059;-89
2021/03/05 19:57:08;;;;;;;8.82;2.20;;;5.70;87.30;;;;;;6155394;23;20026;-89
2021/03/05 20:17:43;;;;;;;8.10;2.40;;;5.30;87.90;;;;;;6243320;23;20016;-89
2021/03/05 20:20:12;;;;;;;8.73;2.45;;;5.30;88.30;;;;;;6245241;23;20020;-89
2021/03/05 20:22:48;;;;;;;7.88;2.55;;;5.20;88.40;;;;;;6244685;23;20028;-90
2021/03/05 20:25:27;;;;;;;10.05;2.33;;;5.20;88.50;;;;;;6245500;23;20012;-92
2021/03/05 20:27:53;;;;;;;7.75;2.45;;;5.10;88.10;;;;;;6245718;23;20024;-93
2021/03/05 20:30:20;;;;;;;8.32;2.63;;;5.00;88.30;;;;;;6245508;23;20016;-92
2021/03/05 20:33:00;;;;;;;7.80;2.67;;;5.00;88.30;;;;;;6246930;23;20051;-92
2021/03/05 20:36:16;;;;;;;4.97;2.50;;;5.00;88.40;;;;;;6245911;23;20013;-89
2021/03/05 20:38:52;;;;;;;8.95;3.00;;;4.90;88.30;;;;;;6247009;23;20017;-90
2021/03/05 20:41:53;;;;;;;9.23;3.05;;;4.90;88.30;;;;;;6246972;23;20038;-88
2021/03/05 21:46:12;;;;;;;12.75;5.53;;;3.70;89.20;;;;;;6157194;23;20050;-89
2021/03/05 21:49:13;;;;;;;12.52;5.68;;;3.70;89.00;;;;;;6155452;23;20076;-89
2021/03/05 22:03:42;;;;;;;11.63;4.93;;;3.50;89.50;;;;;;6246733;23;20027;-89
2021/03/05 22:06:48;;;;;;;9.48;4.55;;;3.40;89.20;;;;;;6247736;23;20020;-87
2021/03/05 22:09:14;;;;;;;9.90;5.07;;;3.30;89.60;;;;;;6245657;23;20024;-89
2021/03/05 22:11:43;;;;;;;12.32;5.15;;;3.30;89.90;;;;;;6245495;23;20012;-89
2021/03/05 22:14:11;;;;;;;13.27;4.95;;;3.20;89.30;;;;;;6245783;23;20012;-89
2021/03/05 22:16:37;;;;;;;14.23;5.10;;;3.20;89.50;;;;;;6246122;23;20101;-89
2021/03/05 22:19:03;;;;;;;10.13;4.55;;;3.10;89.40;;;;;;6247365;23;20095;-88
2021/03/05 22:21:44;;;;;;;11.50;4.32;;;3.10;89.20;;;;;;6247119;23;20076;-88
2021/03/05 22:24:27;;;;;;;10.40;4.15;;;3.10;88.80;;;;;;6245965;23;20091;-89
2021/03/05 22:27:25;;;;;;;11.05;4.53;;;3.00;88.70;;;;;;6066079;23;20373;-88
2021/03/05 22:30:47;;;;;;;10.98;4.18;;;2.90;89.20;;;;;;6064932;23;20019;-89
2021/03/05 22:33:37;;;;;;;13.02;4.22;;;2.90;89.30;;;;;;6078474;23;20019;-89
2021/03/05 22:36:20;;;;;;;;;;;;;;;;;;;;;
2021/03/05 22:39:45;;;;;;;9.68;4.25;;;2.80;89.20;;;;;;6182907;23;20019;-90
2021/03/05 22:42:51;;;;;;;11.25;3.97;;;2.70;89.10;;;;;;6183317;23;20021;-89
2021/03/05 22:45:45;;;;;;;10.85;4.10;;;2.70;89.00;;;;;;6182658;23;20021;-88
2021/03/05 22:48:47;;;;;;;9.18;3.97;;;2.60;89.10;;;;;;6183326;23;20021;-88
2021/03/05 22:51:33;;;;;;;8.52;3.75;;;2.60;89.30;;;;;;6181238;23;20449;-88
2021/03/05 22:54:02;;;;;;;10.23;3.70;;;2.60;89.20;;;;;;6227962;23;20020;-89
2021/03/05 22:56:40;;;;;;;7.15;3.15;;;2.50;89.30;;;;;;6246047;23;20023;-88
2021/03/05 22:59:06;;;;;;;8.98;3.40;;;2.50;89.50;;;;;;6244419;23;20016;-89
2021/03/05 23:01:42;;;;;;;9.85;3.55;;;2.40;89.20;;;;;;6245042;23;20528;-88
2021/03/05 23:07:48;;;;;;;9.77;3.50;;;2.40;90.00;;;;;;6153781;23;20088;-88
2021/03/05 23:10:35;;;;;;;9.55;3.20;;;2.30;90.00;;;;;;6242535;23;20020;-88
2021/03/05 23:13:09;;;;;;;7.13;2.85;;;2.30;90.20;;;;;;6245342;23;20023;-88
2021/03/05 23:32:19;;;;;;;9.15;3.50;;;2.10;90.10;;;;;;6234870;22;20028;-86
2021/03/05 23:35:35;;;;;;;11.48;4.47;;;2.10;90.10;;;;;;6177813;23;20012;-87
2021/03/05 23:38:41;;;;;;;11.90;4.57;;;2.10;90.10;;;;;;6178499;23;20020;-88
2021/03/05 23:41:07;;;;;;;9.95;4.68;;;2.00;90.20;;;;;;6235504;23;20046;-87
2021/03/05 23:44:46;;;;;;;12.45;4.68;;;2.00;90.10;;;;;;6247632;23;20048;-88
2021/03/05 23:47:30;;;;;;;8.38;3.92;;;1.90;90.00;;;;;;6098819;23;20502;-87
2021/03/05 23:50:09;;;;;;;;;;;1.80;90.00;;;;;;6124075;23;20026;-86
2021/03/05 23:53:29;;;;;;;11.95;4.60;;;1.80;88.90;;;;;;6123805;23;19956;-87
2021/03/05 23:56:15;;;;;;;13.15;5.10;;;1.70;89.90;;;;;;6203970;23;20024;-88
2021/03/05 23:59:06;;;;;;;10.02;4.50;;;1.70;89.80;;;;;;6246115;23;20035;-87
